This is the latest recevied weather packets stored in our database for station/object DB7GV-8. If no packets are shown the sender has not sent any weather packets the latest 10 day(s).
| Time | Temp. | Humidity | Pressure | Rain* | Wind** | Luminosity | Snow |
|---|---|---|---|---|---|---|---|
| 1777893295 | 26.67° C | 27% | 1013.9 hPa | - | - | - | - |
| 1777892390 | 26.67° C | 27% | 1014.2 hPa | - | - | - | - |
| 1777891484 | 27.22° C | 28% | 1014.3 hPa | - | - | - | - |
| 1777890579 | 26.67° C | 29% | 1014.4 hPa | - | - | - | - |
| 1777889674 | 26.67° C | 30% | 1014.6 hPa | - | - | - | - |
| 1777888768 | 25.56° C | 31% | 1014.7 hPa | - | - | - | - |
| 1777887863 | 25.56° C | 33% | 1014.9 hPa | - | - | - | - |
| 1777886957 | 25° C | 35% | 1015.1 hPa | - | - | - | - |
| 1777886052 | 23.89° C | 37% | 1015.3 hPa | - | - | - | - |
| 1777885147 | 22.22° C | 41% | 1015.5 hPa | - | - | - | - |
| 1777884241 | 20.56° C | 46% | 1015.5 hPa | - | - | - | - |
| 1777883336 | 20° C | 48% | 1015.6 hPa | - | - | - | - |
| 1777882431 | 19.44° C | 51% | 1015.7 hPa | - | - | - | - |
| 1777881525 | 18.33° C | 55% | 1015.8 hPa | - | - | - | - |
| 1777880619 | 17.22° C | 58% | 1015.8 hPa | - | - | - | - |
| 1777879714 | 16.11° C | 57% | 1015.9 hPa | - | - | - | - |
| 1777878809 | 20° C | 50% | 1015.8 hPa | - | - | - | - |
| 1777877903 | 22.78° C | 52% | 1016.1 hPa | - | - | - | - |
| 1777876997 | 13.33° C | 73% | 1016 hPa | - | - | - | - |
| 1777874282 | 11.11° C | 78% | 1015.8 hPa | - | - | - | - |
| 1777873376 | 11.11° C | 79% | 1015.8 hPa | - | - | - | - |
| 1777872471 | 10.56° C | 80% | 1015.9 hPa | - | - | - | - |
| 1777871565 | 10.56° C | 80% | 1015.9 hPa | - | - | - | - |
| 1777870660 | 10° C | 81% | 1015.9 hPa | - | - | - | - |
| 1777869753 | 9.44° C | 81% | 1016 hPa | - | - | - | - |
* Rain since midnight (hover to see other rain measurements)
** Current wind speed in m/s (hover to see current wind gust speed)